Terminal Aerodrome Forecast
Issued by NWS

Home | Current Version | Previous Version | Text Only | Print | Product List | Glossary Off
Versions: 1 2 3 4 5 6 7 8 9 10 11 12 13

000
FTUS43 KGRB 151408 AAB
TAFATW
TAF AMD
KATW 151408Z 1514/1612 33015G27KT 5SM -SHRA OVC009
     FM151600 33029G38KT P6SM OVC020
     FM151800 32016G25KT P6SM BKN040
     FM152200 28008KT P6SM SCT040 BKN140=

USA.gov is the U.S. government's official web portal to all federal, state and local government web resources and services.